sensor_id;sensor_type;location;lat;lon;timestamp;pressure;altitude;pressure_sealevel;temperature;humidity
19811;BME280;10065;49.632;8.346;2022-12-18T00:01:24;101968.16;;;-2.43;65.30
19811;BME280;10065;49.632;8.346;2022-12-18T00:03:56;101963.94;;;-2.49;65.67
19811;BME280;10065;49.632;8.346;2022-12-18T00:06:26;101971.72;;;-2.47;65.84
19811;BME280;10065;49.632;8.346;2022-12-18T00:08:54;101961.16;;;-2.38;65.49
19811;BME280;10065;49.632;8.346;2022-12-18T00:11:26;101954.28;;;-2.41;65.09
19811;BME280;10065;49.632;8.346;2022-12-18T00:13:56;101955.38;;;-2.54;65.12
19811;BME280;10065;49.632;8.346;2022-12-18T00:16:26;101953.75;;;-2.58;65.73
19811;BME280;10065;49.632;8.346;2022-12-18T00:18:55;101950.84;;;-2.43;65.77
19811;BME280;10065;49.632;8.346;2022-12-18T00:21:28;101953.53;;;-2.47;65.52
19811;BME280;10065;49.632;8.346;2022-12-18T00:23:57;101966.88;;;-2.66;66.25
19811;BME280;10065;49.632;8.346;2022-12-18T00:26:28;101974.72;;;-2.69;66.60
19811;BME280;10065;49.632;8.346;2022-12-18T00:28:58;101977.31;;;-2.69;66.52
19811;BME280;10065;49.632;8.346;2022-12-18T00:31:26;101985.28;;;-2.81;66.66
19811;BME280;10065;49.632;8.346;2022-12-18T00:33:55;101980.94;;;-2.79;66.38
19811;BME280;10065;49.632;8.346;2022-12-18T00:36:25;101978.72;;;-2.52;65.91
19811;BME280;10065;49.632;8.346;2022-12-18T00:38:53;101985.66;;;-2.53;65.28
19811;BME280;10065;49.632;8.346;2022-12-18T00:41:22;101984.16;;;-2.64;65.14
19811;BME280;10065;49.632;8.346;2022-12-18T00:44:10;101984.22;;;-2.68;65.66
19811;BME280;10065;49.632;8.346;2022-12-18T00:46:38;101982.38;;;-2.62;65.22
19811;BME280;10065;49.632;8.346;2022-12-18T00:49:06;101985.78;;;-2.59;65.24
19811;BME280;10065;49.632;8.346;2022-12-18T00:51:34;101988.41;;;-2.60;64.92
19811;BME280;10065;49.632;8.346;2022-12-18T00:54:02;101980.75;;;-2.68;64.81
19811;BME280;10065;49.632;8.346;2022-12-18T00:56:30;101986.09;;;-2.76;64.68
19811;BME280;10065;49.632;8.346;2022-12-18T00:58:58;101988.59;;;-2.71;64.60
19811;BME280;10065;49.632;8.346;2022-12-18T01:01:27;101976.59;;;-2.78;64.39
19811;BME280;10065;49.632;8.346;2022-12-18T01:03:55;101981.22;;;-2.95;64.51
19811;BME280;10065;49.632;8.346;2022-12-18T01:06:29;101977.72;;;-2.91;64.58
19811;BME280;10065;49.632;8.346;2022-12-18T01:09:00;101968.19;;;-2.91;64.37
19811;BME280;10065;49.632;8.346;2022-12-18T01:11:27;101967.19;;;-2.82;64.16
19811;BME280;10065;49.632;8.346;2022-12-18T01:14:00;101959.63;;;-2.97;64.30
19811;BME280;10065;49.632;8.346;2022-12-18T01:16:29;101967.41;;;-2.97;64.17
19811;BME280;10065;49.632;8.346;2022-12-18T01:18:59;101971.88;;;-3.06;64.04
19811;BME280;10065;49.632;8.346;2022-12-18T01:21:27;101978.09;;;-3.14;64.21
19811;BME280;10065;49.632;8.346;2022-12-18T01:23:56;101980.78;;;-3.20;64.52
19811;BME280;10065;49.632;8.346;2022-12-18T01:26:24;101979.97;;;-3.25;64.80
19811;BME280;10065;49.632;8.346;2022-12-18T01:28:56;101985.28;;;-3.31;65.11
19811;BME280;10065;49.632;8.346;2022-12-18T01:31:26;101981.84;;;-3.33;65.16
19811;BME280;10065;49.632;8.346;2022-12-18T01:33:56;101971.66;;;-3.46;65.26
19811;BME280;10065;49.632;8.346;2022-12-18T01:36:25;101977.66;;;-3.42;65.61
19811;BME280;10065;49.632;8.346;2022-12-18T01:38:54;101992.28;;;-3.36;65.35
19811;BME280;10065;49.632;8.346;2022-12-18T01:41:24;101995.78;;;-3.41;65.24
19811;BME280;10065;49.632;8.346;2022-12-18T01:43:53;101998.47;;;-3.47;65.53
19811;BME280;10065;49.632;8.346;2022-12-18T01:46:25;101995.91;;;-3.50;65.63
19811;BME280;10065;49.632;8.346;2022-12-18T01:48:57;102002.78;;;-3.46;65.46
19811;BME280;10065;49.632;8.346;2022-12-18T01:51:26;101996.63;;;-3.38;65.16
19811;BME280;10065;49.632;8.346;2022-12-18T01:53:54;101983.69;;;-3.42;64.83
19811;BME280;10065;49.632;8.346;2022-12-18T01:56:22;101997.50;;;-3.39;65.07
19811;BME280;10065;49.632;8.346;2022-12-18T01:58:54;101996.66;;;-3.40;64.97
19811;BME280;10065;49.632;8.346;2022-12-18T02:01:23;101992.25;;;-3.35;64.73
19811;BME280;10065;49.632;8.346;2022-12-18T02:03:51;101999.94;;;-3.29;64.67
19811;BME280;10065;49.632;8.346;2022-12-18T02:06:26;101999.19;;;-3.35;64.43
19811;BME280;10065;49.632;8.346;2022-12-18T02:09:06;101999.25;;;-3.40;64.60
19811;BME280;10065;49.632;8.346;2022-12-18T02:11:42;102000.13;;;-3.41;64.95
19811;BME280;10065;49.632;8.346;2022-12-18T02:14:21;102002.56;;;-3.32;64.65
19811;BME280;10065;49.632;8.346;2022-12-18T02:16:53;102000.69;;;-3.22;64.53
19811;BME280;10065;49.632;8.346;2022-12-18T02:19:44;102005.75;;;-3.13;64.16
19811;BME280;10065;49.632;8.346;2022-12-18T02:22:26;102009.06;;;-3.05;63.85
19811;BME280;10065;49.632;8.346;2022-12-18T02:25:05;101998.75;;;-3.08;63.98
19811;BME280;10065;49.632;8.346;2022-12-18T02:27:40;101992.66;;;-3.07;63.84
19811;BME280;10065;49.632;8.346;2022-12-18T02:30:09;101990.28;;;-3.19;64.02
19811;BME280;10065;49.632;8.346;2022-12-18T02:32:40;101986.22;;;-3.35;64.54
19811;BME280;10065;49.632;8.346;2022-12-18T02:35:15;101981.06;;;-3.38;64.83
19811;BME280;10065;49.632;8.346;2022-12-18T02:37:45;101979.47;;;-3.49;64.90
19811;BME280;10065;49.632;8.346;2022-12-18T02:40:15;101968.19;;;-3.43;65.09
19811;BME280;10065;49.632;8.346;2022-12-18T02:42:46;101966.38;;;-3.39;65.23
19811;BME280;10065;49.632;8.346;2022-12-18T02:45:14;101965.59;;;-3.45;65.32
19811;BME280;10065;49.632;8.346;2022-12-18T02:47:48;101959.56;;;-3.47;65.47
19811;BME280;10065;49.632;8.346;2022-12-18T02:50:22;101967.41;;;-3.50;65.23
19811;BME280;10065;49.632;8.346;2022-12-18T02:53:00;101956.25;;;-3.56;65.39
19811;BME280;10065;49.632;8.346;2022-12-18T02:55:44;101965.84;;;-3.61;65.60
19811;BME280;10065;49.632;8.346;2022-12-18T02:58:19;101963.22;;;-3.60;65.53
19811;BME280;10065;49.632;8.346;2022-12-18T03:00:51;101959.84;;;-3.65;65.51
19811;BME280;10065;49.632;8.346;2022-12-18T03:03:25;101956.38;;;-3.64;65.63
19811;BME280;10065;49.632;8.346;2022-12-18T03:05:58;101970.13;;;-3.60;65.32
19811;BME280;10065;49.632;8.346;2022-12-18T03:08:31;101987.50;;;-3.64;65.32
19811;BME280;10065;49.632;8.346;2022-12-18T03:11:05;101985.78;;;-3.65;65.63
19811;BME280;10065;49.632;8.346;2022-12-18T03:13:37;101971.94;;;-3.65;65.75
19811;BME280;10065;49.632;8.346;2022-12-18T03:16:10;101961.63;;;-3.68;65.87
19811;BME280;10065;49.632;8.346;2022-12-18T03:18:42;101953.84;;;-3.68;65.93
19811;BME280;10065;49.632;8.346;2022-12-18T03:21:14;101958.13;;;-3.66;66.20
19811;BME280;10065;49.632;8.346;2022-12-18T03:23:46;101965.75;;;-3.55;66.15
19811;BME280;10065;49.632;8.346;2022-12-18T03:26:17;101964.13;;;-3.62;66.29
19811;BME280;10065;49.632;8.346;2022-12-18T03:28:51;101977.22;;;-3.70;66.52
19811;BME280;10065;49.632;8.346;2022-12-18T03:31:22;101981.47;;;-3.66;66.53
19811;BME280;10065;49.632;8.346;2022-12-18T03:33:52;101974.53;;;-3.64;66.09
19811;BME280;10065;49.632;8.346;2022-12-18T03:36:21;101975.28;;;-3.56;66.35
19811;BME280;10065;49.632;8.346;2022-12-18T03:38:50;101975.16;;;-3.50;65.63
19811;BME280;10065;49.632;8.346;2022-12-18T03:41:32;101967.34;;;-3.47;65.48
19811;BME280;10065;49.632;8.346;2022-12-18T03:44:06;101954.53;;;-3.56;65.38
19811;BME280;10065;49.632;8.346;2022-12-18T03:46:42;101964.91;;;-3.56;65.41
19811;BME280;10065;49.632;8.346;2022-12-18T03:49:19;101975.16;;;-3.50;65.02
19811;BME280;10065;49.632;8.346;2022-12-18T03:51:52;101975.97;;;-3.45;64.92
19811;BME280;10065;49.632;8.346;2022-12-18T03:54:35;101973.47;;;-3.51;64.12
19811;BME280;10065;49.632;8.346;2022-12-18T03:57:07;101980.34;;;-3.50;64.06
19811;BME280;10065;49.632;8.346;2022-12-18T03:59:39;101983.94;;;-3.57;64.20
19811;BME280;10065;49.632;8.346;2022-12-18T04:02:08;101978.63;;;-3.51;64.23
19811;BME280;10065;49.632;8.346;2022-12-18T04:04:38;101978.72;;;-3.54;64.21
19811;BME280;10065;49.632;8.346;2022-12-18T04:07:07;101978.78;;;-3.60;64.55
19811;BME280;10065;49.632;8.346;2022-12-18T04:09:35;101963.31;;;-3.66;64.60
19811;BME280;10065;49.632;8.346;2022-12-18T04:12:04;101964.31;;;-3.76;64.86
19811;BME280;10065;49.632;8.346;2022-12-18T04:14:32;101973.00;;;-3.78;65.09
19811;BME280;10065;49.632;8.346;2022-12-18T04:17:03;101961.84;;;-3.85;65.28
19811;BME280;10065;49.632;8.346;2022-12-18T04:19:31;101960.13;;;-3.86;65.46
19811;BME280;10065;49.632;8.346;2022-12-18T04:21:59;101960.00;;;-3.77;65.43
19811;BME280;10065;49.632;8.346;2022-12-18T04:24:26;101958.22;;;-3.72;65.29
19811;BME280;10065;49.632;8.346;2022-12-18T04:26:54;101958.22;;;-3.72;64.49
19811;BME280;10065;49.632;8.346;2022-12-18T04:29:22;101955.78;;;-3.83;64.69
19811;BME280;10065;49.632;8.346;2022-12-18T04:31:50;101962.81;;;-3.91;64.79
19811;BME280;10065;49.632;8.346;2022-12-18T04:34:19;101952.56;;;-4.01;64.90
19811;BME280;10065;49.632;8.346;2022-12-18T04:36:46;101959.56;;;-4.08;64.97
19811;BME280;10065;49.632;8.346;2022-12-18T04:39:17;101958.78;;;-4.14;65.01
19811;BME280;10065;49.632;8.346;2022-12-18T04:41:45;101957.84;;;-4.09;64.98
19811;BME280;10065;49.632;8.346;2022-12-18T04:44:13;101953.56;;;-4.13;64.83
19811;BME280;10065;49.632;8.346;2022-12-18T04:46:41;101955.38;;;-4.20;64.96
19811;BME280;10065;49.632;8.346;2022-12-18T04:49:09;101960.53;;;-4.13;64.84
19811;BME280;10065;49.632;8.346;2022-12-18T04:51:38;101962.94;;;-4.03;64.27
19811;BME280;10065;49.632;8.346;2022-12-18T04:54:06;101974.34;;;-4.14;64.58
19811;BME280;10065;49.632;8.346;2022-12-18T04:56:34;101976.16;;;-4.23;64.60
19811;BME280;10065;49.632;8.346;2022-12-18T04:59:02;101968.47;;;-4.30;64.87
19811;BME280;10065;49.632;8.346;2022-12-18T05:01:29;101970.19;;;-4.29;64.99
19811;BME280;10065;49.632;8.346;2022-12-18T05:04:00;101975.44;;;-4.34;65.07
19811;BME280;10065;49.632;8.346;2022-12-18T05:06:28;101971.97;;;-4.34;65.13
19811;BME280;10065;49.632;8.346;2022-12-18T05:08:58;101973.59;;;-4.26;64.61
19811;BME280;10065;49.632;8.346;2022-12-18T05:11:26;101964.13;;;-4.30;64.42
19811;BME280;10065;49.632;8.346;2022-12-18T05:13:54;101971.16;;;-4.38;64.59
19811;BME280;10065;49.632;8.346;2022-12-18T05:16:24;101978.13;;;-4.43;64.93
19811;BME280;10065;49.632;8.346;2022-12-18T05:18:52;101971.25;;;-4.48;65.57
19811;BME280;10065;49.632;8.346;2022-12-18T05:21:19;101972.56;;;-4.12;64.84
19811;BME280;10065;49.632;8.346;2022-12-18T05:23:47;101973.44;;;-4.12;64.61
19811;BME280;10065;49.632;8.346;2022-12-18T05:26:17;101970.09;;;-4.22;64.19
19811;BME280;10065;49.632;8.346;2022-12-18T05:28:46;101971.09;;;-4.32;64.35
19811;BME280;10065;49.632;8.346;2022-12-18T05:31:17;101968.56;;;-4.38;64.39
19811;BME280;10065;49.632;8.346;2022-12-18T05:33:45;101972.97;;;-4.46;64.80
19811;BME280;10065;49.632;8.346;2022-12-18T05:36:18;101973.88;;;-4.50;65.41
19811;BME280;10065;49.632;8.346;2022-12-18T05:38:46;101982.44;;;-4.45;65.76
19811;BME280;10065;49.632;8.346;2022-12-18T05:41:14;101975.47;;;-4.38;66.00
19811;BME280;10065;49.632;8.346;2022-12-18T05:43:43;101973.69;;;-4.33;66.08
19811;BME280;10065;49.632;8.346;2022-12-18T05:46:13;101971.78;;;-4.19;65.84
19811;BME280;10065;49.632;8.346;2022-12-18T05:48:41;101969.13;;;-4.13;65.72
19811;BME280;10065;49.632;8.346;2022-12-18T05:51:10;101969.13;;;-4.13;65.96
19811;BME280;10065;49.632;8.346;2022-12-18T05:53:38;101976.78;;;-4.04;65.77
19811;BME280;10065;49.632;8.346;2022-12-18T05:56:09;101975.97;;;-4.07;65.87
19811;BME280;10065;49.632;8.346;2022-12-18T05:58:37;101976.00;;;-4.10;65.96
19811;BME280;10065;49.632;8.346;2022-12-18T06:01:09;101981.19;;;-4.10;66.18
19811;BME280;10065;49.632;8.346;2022-12-18T06:03:37;101982.81;;;-4.02;65.96
19811;BME280;10065;49.632;8.346;2022-12-18T06:06:13;101976.84;;;-4.07;66.32
19811;BME280;10065;49.632;8.346;2022-12-18T06:08:41;101988.09;;;-4.09;66.29
19811;BME280;10065;49.632;8.346;2022-12-18T06:11:12;101978.19;;;-3.78;65.80
19811;BME280;10065;49.632;8.346;2022-12-18T06:13:40;101999.75;;;-3.78;65.55
19811;BME280;10065;49.632;8.346;2022-12-18T06:16:09;101989.50;;;-3.84;65.59
19811;BME280;10065;49.632;8.346;2022-12-18T06:18:38;101991.16;;;-3.78;65.68
19811;BME280;10065;49.632;8.346;2022-12-18T06:21:05;101998.00;;;-3.73;65.22
19811;BME280;10065;49.632;8.346;2022-12-18T06:23:34;102007.47;;;-3.72;65.13
19811;BME280;10065;49.632;8.346;2022-12-18T06:26:06;102004.66;;;-3.57;64.83
19811;BME280;10065;49.632;8.346;2022-12-18T06:28:33;102004.78;;;-3.64;64.68
19811;BME280;10065;49.632;8.346;2022-12-18T06:31:02;102010.97;;;-3.74;64.85
19811;BME280;10065;49.632;8.346;2022-12-18T06:33:32;102012.00;;;-3.88;65.11
19811;BME280;10065;49.632;8.346;2022-12-18T06:36:01;102014.72;;;-3.98;65.64
19811;BME280;10065;49.632;8.346;2022-12-18T06:38:29;102015.69;;;-4.05;65.95
19811;BME280;10065;49.632;8.346;2022-12-18T06:40:57;102013.06;;;-4.04;66.12
19811;BME280;10065;49.632;8.346;2022-12-18T06:43:24;102010.47;;;-4.04;65.89
19811;BME280;10065;49.632;8.346;2022-12-18T06:45:58;102031.25;;;-4.08;66.35
19811;BME280;10065;49.632;8.346;2022-12-18T06:48:29;102042.50;;;-4.09;66.49
19811;BME280;10065;49.632;8.346;2022-12-18T06:50:58;102039.88;;;-4.06;66.35
19811;BME280;10065;49.632;8.346;2022-12-18T06:53:27;102049.41;;;-4.10;66.43
19811;BME280;10065;49.632;8.346;2022-12-18T06:55:59;102029.47;;;-4.03;66.20
19811;BME280;10065;49.632;8.346;2022-12-18T06:58:35;102032.97;;;-4.07;65.99
19811;BME280;10065;49.632;8.346;2022-12-18T07:01:05;102037.31;;;-4.09;66.08
19811;BME280;10065;49.632;8.346;2022-12-18T07:03:33;102044.22;;;-4.07;66.26
19811;BME280;10065;49.632;8.346;2022-12-18T07:06:02;102033.06;;;-4.15;66.11
19811;BME280;10065;49.632;8.346;2022-12-18T07:08:30;102042.59;;;-4.17;66.18
19811;BME280;10065;49.632;8.346;2022-12-18T07:10:58;102041.75;;;-4.21;66.42
19811;BME280;10065;49.632;8.346;2022-12-18T07:13:26;102039.97;;;-4.14;66.45
19811;BME280;10065;49.632;8.346;2022-12-18T07:15:54;102041.63;;;-4.10;66.13
19811;BME280;10065;49.632;8.346;2022-12-18T07:18:22;102033.00;;;-4.12;66.08
19811;BME280;10065;49.632;8.346;2022-12-18T07:20:49;102035.59;;;-4.12;66.01
19811;BME280;10065;49.632;8.346;2022-12-18T07:23:19;102037.41;;;-4.17;65.98
19811;BME280;10065;49.632;8.346;2022-12-18T07:25:46;102027.03;;;-4.14;66.00
19811;BME280;10065;49.632;8.346;2022-12-18T07:28:15;102029.47;;;-4.03;65.38
19811;BME280;10065;49.632;8.346;2022-12-18T07:30:43;102031.25;;;-4.05;65.33
19811;BME280;10065;49.632;8.346;2022-12-18T07:33:10;102035.38;;;-3.91;64.60
19811;BME280;10065;49.632;8.346;2022-12-18T07:35:38;102038.69;;;-3.80;64.12
19811;BME280;10065;49.632;8.346;2022-12-18T07:38:06;102039.44;;;-3.70;63.26
19811;BME280;10065;49.632;8.346;2022-12-18T07:40:37;102037.53;;;-3.59;62.87
19811;BME280;10065;49.632;8.346;2022-12-18T07:43:05;102039.97;;;-3.45;62.31
19811;BME280;10065;49.632;8.346;2022-12-18T07:45:33;102034.69;;;-3.41;61.73
19811;BME280;10065;49.632;8.346;2022-12-18T07:48:01;102031.59;;;-3.67;62.17
19811;BME280;10065;49.632;8.346;2022-12-18T07:50:28;102041.19;;;-3.73;62.17
19811;BME280;10065;49.632;8.346;2022-12-18T07:52:56;102040.47;;;-3.83;62.80
19811;BME280;10065;49.632;8.346;2022-12-18T07:55:24;102055.06;;;-3.76;62.84
19811;BME280;10065;49.632;8.346;2022-12-18T07:57:53;102049.94;;;-3.82;62.88
19811;BME280;10065;49.632;8.346;2022-12-18T08:00:26;102053.19;;;-3.65;62.35
19811;BME280;10065;49.632;8.346;2022-12-18T08:02:54;102061.06;;;-3.71;62.63
19811;BME280;10065;49.632;8.346;2022-12-18T08:05:22;102056.94;;;-3.87;63.20
19811;BME280;10065;49.632;8.346;2022-12-18T08:07:50;102057.94;;;-3.99;63.65
19811;BME280;10065;49.632;8.346;2022-12-18T08:10:18;102065.72;;;-4.00;64.01
19811;BME280;10065;49.632;8.346;2022-12-18T08:12:49;102062.81;;;-3.73;63.28
19811;BME280;10065;49.632;8.346;2022-12-18T08:15:18;102068.09;;;-3.84;63.20
19811;BME280;10065;49.632;8.346;2022-12-18T08:17:46;102069.09;;;-3.95;63.21
19811;BME280;10065;49.632;8.346;2022-12-18T08:20:13;102069.94;;;-3.92;63.30
19811;BME280;10065;49.632;8.346;2022-12-18T08:22:41;102075.94;;;-3.88;63.50
19811;BME280;10065;49.632;8.346;2022-12-18T08:25:10;102070.63;;;-3.78;63.00
19811;BME280;10065;49.632;8.346;2022-12-18T08:27:37;102068.06;;;-3.79;62.94
19811;BME280;10065;49.632;8.346;2022-12-18T08:30:06;102059.38;;;-3.78;62.90
19811;BME280;10065;49.632;8.346;2022-12-18T08:32:38;102053.44;;;-3.86;62.78
19811;BME280;10065;49.632;8.346;2022-12-18T08:35:07;102051.81;;;-3.93;63.40
19811;BME280;10065;49.632;8.346;2022-12-18T08:37:36;102044.97;;;-3.97;63.69
19811;BME280;10065;49.632;8.346;2022-12-18T08:40:04;102035.41;;;-3.94;63.81
19811;BME280;10065;49.632;8.346;2022-12-18T08:42:32;102038.00;;;-3.94;63.86
19811;BME280;10065;49.632;8.346;2022-12-18T08:45:18;102041.34;;;-3.86;63.98
19811;BME280;10065;49.632;8.346;2022-12-18T08:47:47;102043.06;;;-3.86;63.87
19811;BME280;10065;49.632;8.346;2022-12-18T08:50:15;102041.31;;;-3.81;64.11
19811;BME280;10065;49.632;8.346;2022-12-18T08:52:43;102032.44;;;-3.65;63.91
19811;BME280;10065;49.632;8.346;2022-12-18T08:55:10;102022.31;;;-3.20;62.61
19811;BME280;10065;49.632;8.346;2022-12-18T08:57:38;102026.03;;;-2.83;61.57
19811;BME280;10065;49.632;8.346;2022-12-18T09:00:07;102019.25;;;-2.91;61.20
19811;BME280;10065;49.632;8.346;2022-12-18T09:02:35;102017.66;;;-3.00;61.47
19811;BME280;10065;49.632;8.346;2022-12-18T09:05:05;102009.03;;;-3.00;61.25
19811;BME280;10065;49.632;8.346;2022-12-18T09:07:35;102018.53;;;-2.99;61.31
19811;BME280;10065;49.632;8.346;2022-12-18T09:10:05;102016.69;;;-2.93;61.23
19811;BME280;10065;49.632;8.346;2022-12-18T09:12:33;102020.00;;;-2.85;61.00
19811;BME280;10065;49.632;8.346;2022-12-18T09:15:02;102018.84;;;-2.67;60.97
19811;BME280;10065;49.632;8.346;2022-12-18T09:17:30;102022.75;;;-2.45;60.49
19811;BME280;10065;49.632;8.346;2022-12-18T09:19:57;102030.31;;;-2.31;59.90
19811;BME280;10065;49.632;8.346;2022-12-18T09:22:26;102046.56;;;-2.20;59.22
19811;BME280;10065;49.632;8.346;2022-12-18T09:24:54;102035.06;;;-2.10;58.92
19811;BME280;10065;49.632;8.346;2022-12-18T09:27:22;102029.66;;;-1.98;58.50
19811;BME280;10065;49.632;8.346;2022-12-18T09:29:50;102032.28;;;-2.01;58.36
19811;BME280;10065;49.632;8.346;2022-12-18T09:32:18;102032.28;;;-1.99;58.28
19811;BME280;10065;49.632;8.346;2022-12-18T09:34:48;102034.97;;;-2.04;58.25
19811;BME280;10065;49.632;8.346;2022-12-18T09:37:15;102042.47;;;-1.88;58.41
19811;BME280;10065;49.632;8.346;2022-12-18T09:39:45;102046.66;;;-1.81;57.91
19811;BME280;10065;49.632;8.346;2022-12-18T09:42:17;102057.88;;;-1.79;57.63
19811;BME280;10065;49.632;8.346;2022-12-18T09:44:50;102064.00;;;-1.83;58.10
19811;BME280;10065;49.632;8.346;2022-12-18T09:47:20;102063.31;;;-1.92;58.14
19811;BME280;10065;49.632;8.346;2022-12-18T09:49:53;102058.56;;;-1.71;57.91
19811;BME280;10065;49.632;8.346;2022-12-18T09:52:26;102068.97;;;-1.71;57.63
19811;BME280;10065;49.632;8.346;2022-12-18T09:54:59;102071.41;;;-1.62;57.29
19811;BME280;10065;49.632;8.346;2022-12-18T09:57:29;102075.53;;;-1.52;56.94
19811;BME280;10065;49.632;8.346;2022-12-18T10:00:04;102068.78;;;-1.62;56.73
19811;BME280;10065;49.632;8.346;2022-12-18T10:02:33;102074.81;;;-1.59;57.08
19811;BME280;10065;49.632;8.346;2022-12-18T10:05:11;102059.81;;;-1.49;56.94
19811;BME280;10065;49.632;8.346;2022-12-18T10:07:47;102056.25;;;-1.43;56.79
19811;BME280;10065;49.632;8.346;2022-12-18T10:10:29;102049.97;;;-1.33;56.32
19811;BME280;10065;49.632;8.346;2022-12-18T10:13:04;102060.06;;;-1.21;56.14
19811;BME280;10065;49.632;8.346;2022-12-18T10:15:40;102062.66;;;-0.83;55.59
19811;BME280;10065;49.632;8.346;2022-12-18T10:18:20;102056.53;;;-0.80;55.13
19811;BME280;10065;49.632;8.346;2022-12-18T10:20:51;102051.59;;;-0.92;55.56
19811;BME280;10065;49.632;8.346;2022-12-18T10:23:26;102057.16;;;-1.06;55.90
19811;BME280;10065;49.632;8.346;2022-12-18T10:26:02;102062.66;;;-1.20;56.44
19811;BME280;10065;49.632;8.346;2022-12-18T10:28:30;102050.06;;;-1.01;56.41
19811;BME280;10065;49.632;8.346;2022-12-18T10:30:59;102042.50;;;-0.76;56.39
19811;BME280;10065;49.632;8.346;2022-12-18T10:33:29;102035.50;;;-0.40;55.43
19811;BME280;10065;49.632;8.346;2022-12-18T10:35:59;102033.13;;;0.14;54.47
19811;BME280;10065;49.632;8.346;2022-12-18T10:38:29;102032.88;;;0.53;53.27
19811;BME280;10065;49.632;8.346;2022-12-18T10:41:01;102024.75;;;0.62;53.10
19811;BME280;10065;49.632;8.346;2022-12-18T10:43:30;102027.03;;;0.72;52.88
19811;BME280;10065;49.632;8.346;2022-12-18T10:46:03;102033.75;;;1.07;52.01
19811;BME280;10065;49.632;8.346;2022-12-18T10:48:40;102030.72;;;1.46;50.71
19811;BME280;10065;49.632;8.346;2022-12-18T10:51:24;102034.75;;;1.56;50.62
19811;BME280;10065;49.632;8.346;2022-12-18T10:54:00;102037.72;;;1.70;50.55
19811;BME280;10065;49.632;8.346;2022-12-18T10:56:35;102030.56;;;1.50;49.76
19811;BME280;10065;49.632;8.346;2022-12-18T10:59:06;102029.72;;;1.24;50.37
19811;BME280;10065;49.632;8.346;2022-12-18T11:01:51;102032.88;;;1.07;51.74
19811;BME280;10065;49.632;8.346;2022-12-18T11:04:25;102046.41;;;1.46;51.42
19811;BME280;10065;49.632;8.346;2022-12-18T11:06:58;102041.28;;;1.68;51.05
19811;BME280;10065;49.632;8.346;2022-12-18T11:09:27;102034.03;;;2.01;50.32
19811;BME280;10065;49.632;8.346;2022-12-18T11:11:59;102039.66;;;2.13;49.22
19811;BME280;10065;49.632;8.346;2022-12-18T11:14:32;102033.63;;;2.80;48.15
19811;BME280;10065;49.632;8.346;2022-12-18T11:17:03;102039.06;;;2.97;47.84
19811;BME280;10065;49.632;8.346;2022-12-18T11:19:55;102040.97;;;2.92;47.58
19811;BME280;10065;49.632;8.346;2022-12-18T11:22:26;102028.38;;;2.80;48.13
19811;BME280;10065;49.632;8.346;2022-12-18T11:24:57;102016.22;;;2.55;48.80
19811;BME280;10065;49.632;8.346;2022-12-18T11:27:52;102017.69;;;2.41;49.41
19811;BME280;10065;49.632;8.346;2022-12-18T11:30:25;102021.47;;;2.10;49.75
19811;BME280;10065;49.632;8.346;2022-12-18T11:32:56;102031.50;;;1.98;50.37
19811;BME280;10065;49.632;8.346;2022-12-18T11:35:36;102023.91;;;1.67;51.06
19811;BME280;10065;49.632;8.346;2022-12-18T11:38:12;102024.28;;;1.56;51.33
19811;BME280;10065;49.632;8.346;2022-12-18T11:40:48;102022.28;;;1.38;51.41
19811;BME280;10065;49.632;8.346;2022-12-18T11:43:23;102015.88;;;1.22;51.54
19811;BME280;10065;49.632;8.346;2022-12-18T11:46:00;102024.06;;;1.11;51.82
19811;BME280;10065;49.632;8.346;2022-12-18T11:48:32;102017.34;;;1.04;52.00
19811;BME280;10065;49.632;8.346;2022-12-18T11:51:04;102014.91;;;0.98;52.48
19811;BME280;10065;49.632;8.346;2022-12-18T11:53:33;102019.97;;;0.76;53.33
19811;BME280;10065;49.632;8.346;2022-12-18T11:56:16;102023.34;;;0.52;54.58
19811;BME280;10065;49.632;8.346;2022-12-18T11:58:51;102015.16;;;0.34;55.27
19811;BME280;10065;49.632;8.346;2022-12-18T12:01:33;102002.28;;;0.28;55.72
19811;BME280;10065;49.632;8.346;2022-12-18T12:04:26;102006.16;;;0.15;56.55
19811;BME280;10065;49.632;8.346;2022-12-18T12:07:04;101999.19;;;0.16;56.65
19811;BME280;10065;49.632;8.346;2022-12-18T12:09:43;102004.41;;;0.16;56.67
19811;BME280;10065;49.632;8.346;2022-12-18T12:12:31;102009.34;;;0.25;56.71
19811;BME280;10065;49.632;8.346;2022-12-18T12:15:26;101998.41;;;0.12;57.21
19811;BME280;10065;49.632;8.346;2022-12-18T12:18:02;101985.84;;;0.26;56.90
19811;BME280;10065;49.632;8.346;2022-12-18T12:20:44;101980.53;;;0.28;56.44
19811;BME280;10065;49.632;8.346;2022-12-18T12:23:22;101979.06;;;0.19;56.45
19811;BME280;10065;49.632;8.346;2022-12-18T12:25:57;101982.50;;;0.21;56.45
19811;BME280;10065;49.632;8.346;2022-12-18T12:28:53;101986.19;;;0.14;56.44
19811;BME280;10065;49.632;8.346;2022-12-18T12:31:41;101983.53;;;0.16;56.28
19811;BME280;10065;49.632;8.346;2022-12-18T12:34:22;101974.75;;;0.18;56.70
19811;BME280;10065;49.632;8.346;2022-12-18T12:37:04;101978.44;;;0.11;56.47
19811;BME280;10065;49.632;8.346;2022-12-18T12:39:43;101975.66;;;0.17;56.15
19811;BME280;10065;49.632;8.346;2022-12-18T12:42:29;101969.63;;;0.15;56.35
19811;BME280;10065;49.632;8.346;2022-12-18T12:45:21;101960.72;;;-0.07;57.57
19811;BME280;10065;49.632;8.346;2022-12-18T12:47:53;101969.97;;;0.03;57.12
19811;BME280;10065;49.632;8.346;2022-12-18T12:50:22;101964.69;;;0.06;57.49
19811;BME280;10065;49.632;8.346;2022-12-18T12:52:55;101965.84;;;-0.04;57.89
19811;BME280;10065;49.632;8.346;2022-12-18T12:55:27;101956.56;;;-0.14;57.89
19811;BME280;10065;49.632;8.346;2022-12-18T12:58:02;101957.63;;;-0.20;58.21
19811;BME280;10065;49.632;8.346;2022-12-18T13:00:39;101949.16;;;-0.28;59.04
19811;BME280;10065;49.632;8.346;2022-12-18T13:03:18;101942.28;;;-0.30;58.92
19811;BME280;10065;49.632;8.346;2022-12-18T13:05:54;101942.44;;;-0.36;58.85
19811;BME280;10065;49.632;8.346;2022-12-18T13:08:31;101936.50;;;-0.42;59.02
19811;BME280;10065;49.632;8.346;2022-12-18T13:11:29;101935.03;;;-0.52;59.48
19811;BME280;10065;49.632;8.346;2022-12-18T13:14:40;101927.78;;;-0.41;59.14
19811;BME280;10065;49.632;8.346;2022-12-18T13:17:16;101925.13;;;-0.39;59.25